Time,TemperatureF,DewpointF,PressureIn,WindDirection,WindDirectionDegrees,WindSpeedMPH,WindSpeedGustMPH,Humidity,HourlyPrecipIn,Conditions,Clouds,dailyrainin,SoftwareType,DateUTC
2013-05-20 00:00:00,63.2,63.0,30.03,NNE,32,0.0,0.0,99,0.00,,,3.32,dv,2013-05-20 04:00:00,
2013-05-20 00:05:00,63.1,62.9,30.03,NNE,33,0.0,0.0,99,0.00,,,0.00,dv,2013-05-20 04:05:00,
2013-05-20 00:10:00,63.4,63.2,30.04,NNE,33,0.0,0.0,99,0.00,,,0.00,dv,2013-05-20 04:10:00,
2013-05-20 00:15:00,63.1,62.9,30.04,NNE,32,0.0,0.0,99,0.00,,,0.00,dv,2013-05-20 04:15:00,
2013-05-20 00:20:00,63.2,63.0,30.04,NNE,33,0.0,0.0,99,0.00,,,0.00,dv,2013-05-20 04:20:00,
2013-05-20 00:25:00,63.0,62.8,30.04,NNE,33,0.0,0.0,99,0.00,,,0.00,dv,2013-05-20 04:25:00,
2013-05-20 00:30:00,63.0,62.8,30.04,NNE,33,0.0,0.0,99,0.00,,,0.00,dv,2013-05-20 04:30:00,
2013-05-20 00:35:00,63.1,62.9,30.05,NNE,33,0.0,0.0,99,0.00,,,0.00,dv,2013-05-20 04:35:00,
2013-05-20 00:40:00,63.0,62.8,30.05,NNE,33,0.0,0.0,99,0.00,,,0.00,dv,2013-05-20 04:40:00,
2013-05-20 00:45:00,62.9,62.7,30.05,NNE,33,0.0,0.0,99,0.00,,,0.00,dv,2013-05-20 04:45:00,
2013-05-20 00:50:00,63.0,62.8,30.05,NNE,32,0.0,0.0,99,0.00,,,0.00,dv,2013-05-20 04:50:00,
2013-05-20 00:55:00,62.9,62.7,30.04,NNE,33,0.0,0.0,99,0.00,,,0.00,dv,2013-05-20 04:55:00,
2013-05-20 01:00:00,62.7,62.5,30.04,NNE,33,0.0,0.0,99,0.00,,,0.00,dv,2013-05-20 05:00:00,
2013-05-20 01:05:00,62.7,62.5,30.04,NNE,33,0.0,0.0,99,0.00,,,0.00,dv,2013-05-20 05:05:00,
2013-05-20 01:10:00,62.7,62.5,30.04,NNE,33,0.0,0.0,99,0.00,,,0.00,dv,2013-05-20 05:10:00,
2013-05-20 01:15:00,62.7,62.5,30.04,NNE,33,0.0,0.0,99,0.00,,,0.00,dv,2013-05-20 05:15:00,
2013-05-20 01:20:00,62.6,62.4,30.04,NNE,33,0.0,0.0,99,0.00,,,0.00,dv,2013-05-20 05:20:00,
2013-05-20 01:25:00,62.5,62.3,30.04,NNE,33,0.0,0.0,99,0.00,,,0.00,dv,2013-05-20 05:25:00,
2013-05-20 01:30:00,62.5,62.3,30.04,NNE,33,0.0,0.0,99,0.00,,,0.00,dv,2013-05-20 05:30:00,
2013-05-20 01:35:00,62.5,62.3,30.04,NNE,33,0.0,0.0,99,0.00,,,0.00,dv,2013-05-20 05:35:00,
2013-05-20 01:40:00,62.1,61.9,30.04,NNE,33,0.0,0.0,99,0.00,,,0.00,dv,2013-05-20 05:40:00,
2013-05-20 01:45:00,62.3,62.1,30.04,NNE,33,0.0,0.0,99,0.00,,,0.00,dv,2013-05-20 05:45:00,
2013-05-20 01:50:00,62.4,62.2,30.03,NNE,33,0.0,0.0,99,0.00,,,0.00,dv,2013-05-20 05:50:00,
2013-05-20 01:55:00,62.2,62.0,30.04,NNE,33,0.0,0.0,99,0.00,,,0.00,dv,2013-05-20 05:55:00,
2013-05-20 02:00:00,62.3,62.1,30.03,NNE,33,0.0,0.0,99,0.00,,,0.00,dv,2013-05-20 06:00:00,
2013-05-20 02:05:00,62.4,62.2,30.03,NNE,33,0.0,0.0,99,0.00,,,0.00,dv,2013-05-20 06:05:00,
2013-05-20 02:10:00,62.2,62.0,30.03,NNE,33,0.0,0.0,99,0.00,,,0.00,dv,2013-05-20 06:10:00,
2013-05-20 02:15:00,62.5,62.3,30.04,NNE,33,0.0,0.0,99,0.00,,,0.00,dv,2013-05-20 06:15:00,
2013-05-20 02:20:00,62.5,62.3,30.04,NNE,33,0.0,0.0,99,0.00,,,0.00,dv,2013-05-20 06:20:00,
2013-05-20 02:25:00,62.3,62.1,30.03,NNE,33,0.0,0.0,99,0.00,,,0.00,dv,2013-05-20 06:25:00,
2013-05-20 02:30:00,62.4,62.2,30.03,NNE,33,0.0,0.0,99,0.00,,,0.00,dv,2013-05-20 06:30:00,
2013-05-20 02:35:00,62.4,62.2,30.03,NNE,32,0.0,0.0,99,0.00,,,0.00,dv,2013-05-20 06:35:00,
2013-05-20 02:40:00,62.6,62.4,30.03,NNE,33,0.0,0.0,99,0.00,,,0.00,dv,2013-05-20 06:40:00,
2013-05-20 02:45:00,62.3,62.1,30.02,NNE,32,0.0,0.0,99,0.00,,,0.00,dv,2013-05-20 06:45:00,
2013-05-20 02:50:00,62.5,62.3,30.03,NNE,33,0.0,0.0,99,0.00,,,0.00,dv,2013-05-20 06:50:00,
2013-05-20 02:55:00,62.4,62.2,30.03,NNE,33,0.0,0.0,99,0.00,,,0.00,dv,2013-05-20 06:55:00,
2013-05-20 03:00:00,62.5,62.3,30.03,NNE,33,0.0,0.0,99,0.00,,,0.00,dv,2013-05-20 07:00:00,
2013-05-20 03:05:00,62.2,62.0,30.03,NNE,33,0.0,0.0,99,0.00,,,0.00,dv,2013-05-20 07:05:00,
2013-05-20 03:10:00,62.3,62.1,30.03,NNE,33,0.0,0.0,99,0.00,,,0.00,dv,2013-05-20 07:10:00,
2013-05-20 03:15:00,62.2,62.0,30.03,NNE,33,0.0,0.0,99,0.00,,,0.00,dv,2013-05-20 07:15:00,
2013-05-20 03:20:00,62.2,62.0,30.03,NNE,33,0.0,0.0,99,0.00,,,0.00,dv,2013-05-20 07:20:00,
2013-05-20 03:25:00,61.8,61.6,30.04,NNE,32,0.0,0.0,99,0.00,,,0.00,dv,2013-05-20 07:25:00,
2013-05-20 03:30:00,61.8,61.6,30.03,NNE,32,0.0,0.0,99,0.00,,,0.00,dv,2013-05-20 07:30:00,
2013-05-20 03:35:00,61.9,61.7,30.04,NNE,33,0.0,0.0,99,0.00,,,0.00,dv,2013-05-20 07:35:00,
2013-05-20 03:40:00,61.9,61.7,30.03,NNE,33,0.0,0.0,99,0.00,,,0.00,dv,2013-05-20 07:40:00,
2013-05-20 03:45:00,61.6,61.4,30.04,NNE,33,0.0,0.0,99,0.00,,,0.00,dv,2013-05-20 07:45:00,
2013-05-20 03:50:00,61.7,61.5,30.03,NNE,33,0.0,0.0,99,0.00,,,0.00,dv,2013-05-20 07:50:00,
2013-05-20 03:55:00,61.7,61.5,30.03,NNE,33,0.0,0.0,99,0.00,,,0.00,dv,2013-05-20 07:55:00,
2013-05-20 04:00:00,61.8,61.6,30.03,NNE,33,0.0,0.0,99,0.00,,,0.00,dv,2013-05-20 08:00:00,
2013-05-20 04:05:00,61.7,61.5,30.03,NNE,33,0.0,0.0,99,0.00,,,0.00,dv,2013-05-20 08:05:00,
2013-05-20 04:10:00,61.7,61.5,30.03,NNE,33,0.0,0.0,99,0.00,,,0.00,dv,2013-05-20 08:10:00,
2013-05-20 04:15:00,61.6,61.4,30.03,NNE,33,0.0,0.0,99,0.00,,,0.00,dv,2013-05-20 08:15:00,
2013-05-20 04:20:00,61.5,61.3,30.03,NNE,33,0.0,0.0,99,0.00,,,0.00,dv,2013-05-20 08:20:00,
2013-05-20 04:25:00,61.6,61.6,30.03,NNE,33,0.0,0.0,100,0.00,,,0.00,dv,2013-05-20 08:25:00,
2013-05-20 04:30:00,61.6,61.4,30.03,NNE,33,0.0,0.0,99,0.00,,,0.00,dv,2013-05-20 08:30:00,
2013-05-20 04:35:00,61.4,61.2,30.03,NNE,33,0.0,0.0,99,0.00,,,0.00,dv,2013-05-20 08:35:00,
2013-05-20 04:40:00,61.4,61.2,30.03,NNE,33,0.0,0.0,99,0.00,,,0.00,dv,2013-05-20 08:40:00,
2013-05-20 04:45:00,61.4,61.2,30.03,NNE,33,0.0,0.0,99,0.00,,,0.00,dv,2013-05-20 08:45:00,
2013-05-20 04:50:00,61.5,61.3,30.02,NNE,33,0.0,0.0,99,0.00,,,0.00,dv,2013-05-20 08:50:00,
2013-05-20 04:55:00,61.3,61.1,30.03,NNE,33,0.0,0.0,99,0.00,,,0.00,dv,2013-05-20 08:55:00,
2013-05-20 05:00:00,61.3,61.1,30.03,NNE,33,0.0,0.0,99,0.00,,,0.00,dv,2013-05-20 09:00:00,
2013-05-20 05:05:00,61.2,61.0,30.03,NNE,32,0.0,0.0,99,0.00,,,0.00,dv,2013-05-20 09:05:00,
2013-05-20 05:10:00,61.2,61.0,30.03,NNE,33,0.0,0.0,99,0.00,,,0.00,dv,2013-05-20 09:10:00,
2013-05-20 05:15:00,61.0,60.8,30.03,NNE,33,0.0,0.0,99,0.00,,,0.00,dv,2013-05-20 09:15:00,
2013-05-20 05:20:00,61.0,60.8,30.03,NNE,33,0.0,0.0,99,0.00,,,0.00,dv,2013-05-20 09:20:00,
2013-05-20 05:25:00,61.1,60.9,30.02,NNE,33,0.0,0.0,99,0.00,,,0.00,dv,2013-05-20 09:25:00,
2013-05-20 05:30:00,60.8,60.6,30.03,NNE,33,0.0,0.0,99,0.00,,,0.00,dv,2013-05-20 09:30:00,
2013-05-20 05:35:00,60.8,60.8,30.03,NNE,32,0.0,0.0,100,0.00,,,0.00,dv,2013-05-20 09:35:00,
2013-05-20 05:40:00,60.8,60.8,30.03,NNE,33,0.0,0.0,100,0.00,,,0.00,dv,2013-05-20 09:40:00,
2013-05-20 05:45:00,60.7,60.7,30.03,NNE,33,0.0,0.0,100,0.00,,,0.00,dv,2013-05-20 09:45:00,
2013-05-20 05:50:00,60.6,60.6,30.03,NNE,33,0.0,0.0,100,0.00,,,0.00,dv,2013-05-20 09:50:00,
2013-05-20 05:55:00,60.7,60.5,30.03,NNE,33,0.0,0.0,99,0.00,,,0.00,dv,2013-05-20 09:55:00,
2013-05-20 06:00:00,60.5,60.3,30.03,NNE,33,0.0,0.0,99,0.00,,,0.00,dv,2013-05-20 10:00:00,
2013-05-20 06:05:00,60.7,60.7,30.03,NNE,33,0.0,0.0,100,0.00,,,0.00,dv,2013-05-20 10:05:00,
2013-05-20 06:10:00,60.5,60.3,30.04,NNE,33,0.0,0.0,99,0.00,,,0.00,dv,2013-05-20 10:10:00,
2013-05-20 06:15:00,60.4,60.2,30.04,NNE,33,0.0,0.0,99,0.00,,,0.00,dv,2013-05-20 10:15:00,
2013-05-20 06:20:00,60.4,60.4,30.04,NNE,33,0.0,0.0,100,0.00,,,0.00,dv,2013-05-20 10:20:00,
2013-05-20 06:25:00,60.3,60.3,30.04,NNE,33,0.0,0.0,100,0.00,,,0.00,dv,2013-05-20 10:25:00,
2013-05-20 06:30:00,60.3,60.3,30.04,NNE,33,0.0,0.0,100,0.00,,,0.00,dv,2013-05-20 10:30:00,
2013-05-20 06:35:00,60.4,60.4,30.05,NNE,33,0.0,0.0,100,0.00,,,0.00,dv,2013-05-20 10:35:00,
2013-05-20 06:40:00,60.4,60.2,30.05,NNE,33,0.0,0.0,99,0.00,,,0.00,dv,2013-05-20 10:40:00,
2013-05-20 06:45:00,60.4,60.4,30.05,NNE,33,0.0,0.0,100,0.00,,,0.00,dv,2013-05-20 10:45:00,
2013-05-20 06:50:00,60.3,60.1,30.05,NNE,32,0.0,0.0,99,0.00,,,0.00,dv,2013-05-20 10:50:00,
2013-05-20 06:55:00,60.3,60.3,30.06,NNE,32,0.0,0.0,100,0.00,,,0.00,dv,2013-05-20 10:55:00,
2013-05-20 07:00:00,60.3,60.1,30.06,NNE,33,0.0,0.0,99,0.00,,,0.00,dv,2013-05-20 11:00:00,
2013-05-20 07:05:00,60.3,60.1,30.05,NNE,33,0.0,0.0,99,0.00,,,0.00,dv,2013-05-20 11:05:00,
2013-05-20 07:10:00,60.5,60.5,30.05,NNE,33,0.0,0.0,100,0.00,,,0.00,dv,2013-05-20 11:10:00,
2013-05-20 07:15:00,60.4,60.2,30.05,NNE,33,0.0,0.0,99,0.00,,,0.00,dv,2013-05-20 11:15:00,
2013-05-20 07:20:00,60.7,60.7,30.06,NNE,32,0.0,0.0,100,0.00,,,0.00,dv,2013-05-20 11:20:00,
2013-05-20 07:25:00,60.7,60.7,30.06,NNE,33,0.0,0.0,100,0.00,,,0.00,dv,2013-05-20 11:25:00,
2013-05-20 07:30:00,60.7,60.7,30.06,NNE,32,0.0,0.0,100,0.00,,,0.00,dv,2013-05-20 11:30:00,
2013-05-20 07:35:00,60.8,60.8,30.06,NNE,33,0.0,0.0,100,0.00,,,0.00,dv,2013-05-20 11:35:00,
2013-05-20 07:40:00,61.1,61.1,30.06,NNE,32,0.0,0.0,100,0.00,,,0.00,dv,2013-05-20 11:40:00,
2013-05-20 07:45:00,61.0,61.0,30.06,NNE,33,0.0,0.0,100,0.00,,,0.00,dv,2013-05-20 11:45:00,
2013-05-20 07:50:00,61.0,61.0,30.06,NNE,33,0.0,0.0,100,0.00,,,0.00,dv,2013-05-20 11:50:00,
2013-05-20 08:00:00,61.1,61.1,30.06,NNE,33,0.0,0.0,100,0.00,,,0.00,dv,2013-05-20 12:00:00,
2013-05-20 08:05:00,61.0,61.0,30.06,NNE,33,0.0,0.0,100,0.00,,,0.00,dv,2013-05-20 12:05:00,
2013-05-20 08:10:00,61.2,61.0,30.06,NNE,33,0.0,0.0,99,0.00,,,0.00,dv,2013-05-20 12:10:00,
2013-05-20 08:15:00,61.2,61.2,30.06,NNE,33,0.0,0.0,100,0.00,,,0.00,dv,2013-05-20 12:15:00,
2013-05-20 08:20:00,61.2,61.2,30.07,NNE,33,0.0,0.0,100,0.00,,,0.00,dv,2013-05-20 12:20:00,
2013-05-20 08:25:00,61.4,61.4,30.06,NNE,33,0.0,0.0,100,0.00,,,0.00,dv,2013-05-20 12:25:00,
2013-05-20 08:30:00,61.4,61.4,30.07,NNE,33,0.0,0.0,100,0.00,,,0.00,dv,2013-05-20 12:30:00,
2013-05-20 08:35:00,61.5,61.5,30.06,NNE,33,0.0,0.0,100,0.00,,,0.00,dv,2013-05-20 12:35:00,
2013-05-20 08:40:00,61.7,61.7,30.07,NNE,33,0.0,0.0,100,0.00,,,0.00,dv,2013-05-20 12:40:00,
2013-05-20 08:45:00,61.8,61.8,30.07,NNE,32,0.0,0.0,100,0.00,,,0.00,dv,2013-05-20 12:45:00,
2013-05-20 08:50:00,62.1,62.1,30.08,NNE,33,0.0,0.0,100,0.00,,,0.00,dv,2013-05-20 12:50:00,
2013-05-20 08:55:00,62.3,62.3,30.08,NNE,33,0.0,0.0,100,0.00,,,0.00,dv,2013-05-20 12:55:00,
2013-05-20 09:00:00,62.5,62.5,30.07,NNE,32,0.0,0.0,100,0.00,,,0.00,dv,2013-05-20 13:00:00,
2013-05-20 09:05:00,62.5,62.5,30.08,NNE,32,0.0,0.0,100,0.00,,,0.00,dv,2013-05-20 13:05:00,
2013-05-20 09:10:00,62.8,62.8,30.08,NNE,33,0.0,0.0,100,0.00,,,0.00,dv,2013-05-20 13:10:00,
2013-05-20 09:15:00,62.9,62.9,30.08,NNE,32,0.0,0.0,100,0.00,,,0.00,dv,2013-05-20 13:15:00,
2013-05-20 09:20:00,63.0,63.0,30.08,NNE,33,0.0,0.0,100,0.00,,,0.00,dv,2013-05-20 13:20:00,
2013-05-20 09:25:00,63.2,63.2,30.08,NNE,33,0.0,0.0,100,0.00,,,0.00,dv,2013-05-20 13:25:00,
2013-05-20 09:30:00,63.5,63.5,30.08,NNE,32,0.0,0.0,100,0.00,,,0.00,dv,2013-05-20 13:30:00,
2013-05-20 09:35:00,63.7,63.7,30.08,NNE,33,0.0,0.0,100,0.00,,,0.00,dv,2013-05-20 13:35:00,
2013-05-20 09:40:00,64.0,64.0,30.08,NNE,33,0.0,0.0,100,0.00,,,0.00,dv,2013-05-20 13:40:00,
2013-05-20 09:45:00,64.3,64.3,30.09,NNE,33,0.0,0.0,100,0.00,,,0.00,dv,2013-05-20 13:45:00,
2013-05-20 09:50:00,64.7,64.7,30.09,NNE,33,0.0,0.0,100,0.00,,,0.00,dv,2013-05-20 13:50:00,
2013-05-20 09:55:00,64.9,64.9,30.09,NNE,32,0.0,0.0,100,0.00,,,0.00,dv,2013-05-20 13:55:00,
2013-05-20 10:00:00,65.0,65.0,30.09,NNE,32,0.0,0.0,100,0.00,,,0.00,dv,2013-05-20 14:00:00,
2013-05-20 10:05:00,65.5,65.5,30.09,NNE,33,0.0,0.0,100,0.00,,,0.00,dv,2013-05-20 14:05:00,
2013-05-20 10:10:00,65.8,65.8,30.09,NNE,33,0.0,0.0,100,0.00,,,0.00,dv,2013-05-20 14:10:00,
2013-05-20 10:15:00,65.9,65.9,30.09,NNE,33,0.0,0.0,100,0.00,,,0.00,dv,2013-05-20 14:15:00,
2013-05-20 10:20:00,66.4,66.4,30.09,NNE,32,0.0,0.0,100,0.00,,,0.00,dv,2013-05-20 14:20:00,
2013-05-20 10:25:00,66.5,66.5,30.08,NNE,32,0.0,0.0,100,0.00,,,0.00,dv,2013-05-20 14:25:00,
2013-05-20 10:30:00,66.6,66.6,30.09,NNE,32,0.0,0.0,100,0.00,,,0.00,dv,2013-05-20 14:30:00,
2013-05-20 10:35:00,66.9,66.9,30.09,NNE,33,0.0,0.0,100,0.00,,,0.00,dv,2013-05-20 14:35:00,
2013-05-20 10:40:00,67.0,67.0,30.09,NNE,33,1.6,1.6,100,0.00,,,0.00,dv,2013-05-20 14:40:00,
2013-05-20 10:45:00,67.1,67.1,30.09,NNE,33,0.0,0.0,100,0.00,,,0.00,dv,2013-05-20 14:45:00,
2013-05-20 10:50:00,67.2,67.2,30.09,NNE,32,0.0,0.0,100,0.00,,,0.00,dv,2013-05-20 14:50:00,
2013-05-20 10:55:00,67.4,67.4,30.09,NNE,33,1.6,1.6,100,0.00,,,0.00,dv,2013-05-20 14:55:00,
2013-05-20 11:00:00,67.3,67.3,30.09,NNE,33,0.0,0.0,100,0.00,,,0.00,dv,2013-05-20 15:00:00,
2013-05-20 11:05:00,67.2,34.8,30.10,NNE,32,0.0,0.0,20,0.00,,,0.00,dv,2013-05-20 15:05:00,
2013-05-20 11:10:00,67.1,67.1,30.09,NNE,33,0.0,0.0,100,0.00,,,0.00,dv,2013-05-20 15:10:00,
2013-05-20 11:15:00,67.1,67.1,30.09,NNE,33,0.0,0.0,100,0.00,,,0.00,dv,2013-05-20 15:15:00,
2013-05-20 11:20:00,67.4,67.4,30.09,NNE,33,0.0,0.0,100,0.03,,,0.03,dv,2013-05-20 15:20:00,
2013-05-20 11:25:00,67.4,67.4,30.09,NNE,33,0.0,0.0,100,0.03,,,0.03,dv,2013-05-20 15:25:00,
2013-05-20 11:30:00,67.7,67.7,30.10,NNE,32,0.0,0.0,100,0.03,,,0.03,dv,2013-05-20 15:30:00,
2013-05-20 11:35:00,68.1,68.1,30.09,NNE,33,1.6,1.6,100,0.03,,,0.03,dv,2013-05-20 15:35:00,
2013-05-20 11:40:00,68.2,68.2,30.09,NNE,32,0.0,0.0,100,0.03,,,0.03,dv,2013-05-20 15:40:00,
2013-05-20 11:50:00,68.5,35.8,30.09,NNE,33,0.0,0.0,20,0.03,,,0.03,dv,2013-05-20 15:50:00,
2013-05-20 11:55:00,68.5,35.8,30.09,NNE,33,0.0,0.0,20,0.03,,,0.03,dv,2013-05-20 15:55:00,
2013-05-20 12:00:00,68.7,68.7,30.08,NNE,32,0.0,0.0,100,0.03,,,0.03,dv,2013-05-20 16:00:00,
2013-05-20 12:05:00,69.0,57.8,30.08,NNE,33,0.0,0.0,60,0.03,,,0.03,dv,2013-05-20 16:05:00,
2013-05-20 12:10:00,69.0,57.8,30.08,NNE,33,0.0,0.0,60,0.03,,,0.03,dv,2013-05-20 16:10:00,
2013-05-20 12:35:00,70.1,70.1,30.07,NNE,32,0.0,0.0,100,0.00,,,0.03,dv,2013-05-20 16:35:00,
2013-05-20 12:40:00,70.4,70.4,30.07,NNE,32,0.0,0.0,100,0.00,,,0.03,dv,2013-05-20 16:40:00,
2013-05-20 12:45:00,70.4,70.4,30.07,NNE,32,0.0,0.0,100,0.00,,,0.03,dv,2013-05-20 16:45:00,
2013-05-20 12:50:00,71.0,70.1,30.07,NNE,32,0.0,0.0,96,0.00,,,0.03,dv,2013-05-20 16:50:00,
2013-05-20 12:55:00,71.0,70.1,30.07,NNE,32,0.0,0.0,96,0.00,,,0.03,dv,2013-05-20 16:55:00,
2013-05-20 13:00:00,71.3,69.4,30.07,WSW,245,3.2,3.2,92,0.00,,,0.03,dv,2013-05-20 17:00:00,
2013-05-20 13:05:00,71.6,69.4,30.07,South,190,3.2,3.2,91,0.00,,,0.03,dv,2013-05-20 17:05:00,
2013-05-20 13:10:00,71.6,69.4,30.07,South,190,3.2,3.2,91,0.00,,,0.03,dv,2013-05-20 17:10:00,
2013-05-20 13:35:00,74.1,70.3,30.06,SE,126,4.8,4.8,85,0.00,,,0.03,dv,2013-05-20 17:35:00,
2013-05-20 13:40:00,74.5,71.3,30.06,SE,126,0.0,0.0,87,0.00,,,0.03,dv,2013-05-20 17:40:00,
2013-05-20 13:45:00,74.8,71.3,30.06,SE,126,3.2,3.2,86,0.00,,,0.03,dv,2013-05-20 17:45:00,
2013-05-20 13:50:00,75.1,70.8,30.06,SSE,148,1.6,1.6,83,0.00,,,0.03,dv,2013-05-20 17:50:00,
2013-05-20 13:55:00,75.6,71.2,30.05,NNE,22,1.6,1.6,83,0.00,,,0.03,dv,2013-05-20 17:55:00,
2013-05-20 14:00:00,75.9,71.3,30.05,North,6,6.4,6.4,82,0.00,,,0.03,dv,2013-05-20 18:00:00,
2013-05-20 14:05:00,76.3,71.1,30.05,NNE,28,1.6,1.6,80,0.00,,,0.03,dv,2013-05-20 18:05:00,
2013-05-20 14:10:00,76.5,71.3,30.05,NNE,28,1.6,1.6,80,0.00,,,0.03,dv,2013-05-20 18:10:00,
2013-05-20 14:15:00,76.9,71.9,30.05,NNE,28,0.0,0.0,81,0.00,,,0.03,dv,2013-05-20 18:15:00,
2013-05-20 14:20:00,77.3,72.0,30.05,NNW,347,3.2,3.2,80,0.00,,,0.03,dv,2013-05-20 18:20:00,
2013-05-20 14:25:00,77.6,71.4,30.05,NNW,346,1.6,1.6,77,0.00,,,0.03,dv,2013-05-20 18:25:00,
2013-05-20 14:30:00,78.0,71.5,30.04,North,352,1.6,1.6,76,0.00,,,0.03,dv,2013-05-20 18:30:00,
2013-05-20 14:35:00,78.1,71.6,30.04,North,352,0.0,0.0,76,0.00,,,0.03,dv,2013-05-20 18:35:00,
2013-05-20 14:40:00,78.2,71.7,30.04,North,352,0.0,0.0,76,0.00,,,0.03,dv,2013-05-20 18:40:00,
2013-05-20 14:45:00,78.5,71.7,30.04,North,352,0.0,0.0,75,0.00,,,0.03,dv,2013-05-20 18:45:00,
2013-05-20 14:50:00,78.8,71.7,30.04,North,352,0.0,0.0,74,0.00,,,0.03,dv,2013-05-20 18:50:00,
2013-05-20 14:55:00,79.0,71.6,30.04,North,352,0.0,0.0,73,0.00,,,0.03,dv,2013-05-20 18:55:00,
2013-05-20 15:00:00,79.1,72.0,30.04,NNW,347,0.0,0.0,74,0.00,,,0.03,dv,2013-05-20 19:00:00,
2013-05-20 15:05:00,79.4,71.6,30.03,NNE,30,1.6,1.6,72,0.00,,,0.03,dv,2013-05-20 19:05:00,
2013-05-20 15:10:00,79.8,71.7,30.04,NNE,31,1.6,1.6,71,0.00,,,0.03,dv,2013-05-20 19:10:00,
2013-05-20 15:15:00,80.2,72.4,30.04,NNE,32,0.0,0.0,72,0.00,,,0.03,dv,2013-05-20 19:15:00,
2013-05-20 15:20:00,80.5,73.0,30.03,North,10,1.6,1.6,73,0.00,,,0.03,dv,2013-05-20 19:20:00,
2013-05-20 15:25:00,80.9,71.7,30.03,NNE,16,1.6,1.6,68,0.00,,,0.03,dv,2013-05-20 19:25:00,
2013-05-20 15:30:00,81.3,72.8,30.03,NNE,16,0.0,0.0,70,0.00,,,0.03,dv,2013-05-20 19:30:00,
2013-05-20 15:35:00,81.5,72.6,30.03,NNE,16,1.6,1.6,69,0.00,,,0.03,dv,2013-05-20 19:35:00,
2013-05-20 15:40:00,81.8,73.2,30.03,WSW,247,1.6,1.6,70,0.00,,,0.03,dv,2013-05-20 19:40:00,
2013-05-20 15:50:00,82.0,71.7,30.02,WSW,254,1.6,1.6,65,0.00,,,0.03,dv,2013-05-20 19:50:00,
2013-05-20 15:55:00,82.1,71.8,30.02,WSW,254,0.0,0.0,65,0.00,,,0.03,dv,2013-05-20 19:55:00,
2013-05-20 16:00:00,82.3,72.3,30.02,NW,305,1.6,1.6,66,0.00,,,0.03,dv,2013-05-20 20:00:00,
2013-05-20 16:05:00,82.4,72.1,30.01,NW,304,1.6,1.6,65,0.00,,,0.03,dv,2013-05-20 20:05:00,
2013-05-20 16:10:00,82.6,72.3,30.01,North,9,1.6,1.6,65,0.00,,,0.03,dv,2013-05-20 20:10:00,
2013-05-20 16:15:00,82.8,71.4,30.02,North,10,1.6,1.6,62,0.00,,,0.03,dv,2013-05-20 20:15:00,
2013-05-20 16:20:00,82.8,72.4,30.01,North,10,1.6,1.6,65,0.00,,,0.03,dv,2013-05-20 20:20:00,
2013-05-20 16:30:00,82.8,71.7,30.01,SSW,193,1.6,1.6,63,0.00,,,0.03,dv,2013-05-20 20:30:00,
2013-05-20 16:40:00,82.9,72.2,30.01,South,188,1.6,1.6,64,0.00,,,0.03,dv,2013-05-20 20:40:00,
2013-05-20 16:45:00,82.9,72.2,30.01,South,183,1.6,1.6,64,0.00,,,0.03,dv,2013-05-20 20:45:00,
2013-05-20 16:50:00,82.8,71.7,30.01,South,182,0.0,0.0,63,0.00,,,0.03,dv,2013-05-20 20:50:00,
2013-05-20 17:00:00,82.9,72.9,30.01,ESE,116,1.6,1.6,66,0.00,,,0.03,dv,2013-05-20 21:00:00,
2013-05-20 17:05:00,82.7,71.6,30.01,ESE,116,1.6,1.6,63,0.00,,,0.03,dv,2013-05-20 21:05:00,
2013-05-20 17:10:00,82.7,72.7,30.00,ESE,117,0.0,0.0,66,0.00,,,0.03,dv,2013-05-20 21:10:00,
2013-05-20 17:15:00,82.6,72.3,30.00,ESE,116,0.0,0.0,65,0.00,,,0.03,dv,2013-05-20 21:15:00,
2013-05-20 17:20:00,82.5,71.8,30.01,ESE,117,1.6,1.6,64,0.00,,,0.03,dv,2013-05-20 21:20:00,
2013-05-20 17:30:00,82.7,72.0,30.00,ESE,116,0.0,0.0,64,0.00,,,0.03,dv,2013-05-20 21:30:00,
2013-05-20 17:35:00,82.7,72.0,30.00,ESE,117,0.0,0.0,64,0.00,,,0.03,dv,2013-05-20 21:35:00,
2013-05-20 17:40:00,82.8,72.1,30.00,ESE,116,1.6,1.6,64,0.00,,,0.03,dv,2013-05-20 21:40:00,
2013-05-20 17:45:00,82.7,72.0,30.00,East,95,1.6,1.6,64,0.00,,,0.03,dv,2013-05-20 21:45:00,
2013-05-20 17:50:00,82.6,71.9,30.00,South,170,3.2,3.2,64,0.00,,,0.03,dv,2013-05-20 21:50:00,
2013-05-20 17:55:00,82.5,72.2,30.00,South,171,1.6,1.6,65,0.00,,,0.03,dv,2013-05-20 21:55:00,
2013-05-20 18:00:00,82.3,72.0,30.01,South,171,0.0,0.0,65,0.00,,,0.03,dv,2013-05-20 22:00:00,
2013-05-20 18:10:00,82.2,71.9,30.00,South,171,0.0,0.0,65,0.00,,,0.03,dv,2013-05-20 22:10:00,
2013-05-20 18:15:00,82.0,71.3,30.00,South,171,1.6,1.6,64,0.00,,,0.03,dv,2013-05-20 22:15:00,
2013-05-20 18:20:00,81.9,71.2,30.01,South,171,0.0,0.0,64,0.00,,,0.03,dv,2013-05-20 22:20:00,
2013-05-20 18:25:00,81.6,71.3,30.01,South,171,0.0,0.0,65,0.00,,,0.03,dv,2013-05-20 22:25:00,
2013-05-20 18:30:00,81.5,71.6,30.00,South,171,0.0,0.0,66,0.00,,,0.03,dv,2013-05-20 22:30:00,
2013-05-20 18:35:00,81.5,71.2,30.00,South,171,0.0,0.0,65,0.00,,,0.03,dv,2013-05-20 22:35:00,
2013-05-20 18:40:00,81.3,71.4,30.00,South,171,0.0,0.0,66,0.00,,,0.03,dv,2013-05-20 22:40:00,
2013-05-20 18:45:00,81.1,71.2,30.00,South,171,0.0,0.0,66,0.00,,,0.03,dv,2013-05-20 22:45:00,
2013-05-20 18:50:00,80.9,71.4,30.00,South,171,0.0,0.0,67,0.00,,,0.03,dv,2013-05-20 22:50:00,
2013-05-20 18:55:00,80.8,70.9,30.00,South,171,0.0,0.0,66,0.00,,,0.03,dv,2013-05-20 22:55:00,
2013-05-20 19:00:00,80.7,71.2,30.00,South,171,0.0,0.0,67,0.00,,,0.03,dv,2013-05-20 23:00:00,
2013-05-20 19:05:00,80.6,70.7,29.99,South,171,0.0,0.0,66,0.00,,,0.03,dv,2013-05-20 23:05:00,
2013-05-20 19:10:00,80.6,71.1,29.99,South,171,0.0,0.0,67,0.00,,,0.03,dv,2013-05-20 23:10:00,
2013-05-20 19:15:00,80.5,70.6,29.99,South,171,0.0,0.0,66,0.00,,,0.03,dv,2013-05-20 23:15:00,
2013-05-20 19:20:00,80.4,71.2,29.99,South,171,0.0,0.0,68,0.00,,,0.03,dv,2013-05-20 23:20:00,
2013-05-20 19:25:00,80.3,71.8,29.99,South,171,0.0,0.0,70,0.00,,,0.03,dv,2013-05-20 23:25:00,
2013-05-20 19:30:00,80.2,71.4,29.99,South,171,0.0,0.0,69,0.00,,,0.03,dv,2013-05-20 23:30:00,
2013-05-20 19:35:00,80.0,71.2,29.99,South,171,0.0,0.0,69,0.00,,,0.03,dv,2013-05-20 23:35:00,
2013-05-20 19:40:00,79.9,71.8,29.99,South,171,0.0,0.0,71,0.00,,,0.03,dv,2013-05-20 23:40:00,
2013-05-20 19:45:00,79.8,71.7,30.00,South,171,0.0,0.0,71,0.00,,,0.03,dv,2013-05-20 23:45:00,
2013-05-20 19:50:00,79.7,72.5,30.00,South,171,0.0,0.0,74,0.00,,,0.03,dv,2013-05-20 23:50:00,
2013-05-20 19:55:00,79.6,72.4,30.00,South,171,0.0,0.0,74,0.00,,,0.03,dv,2013-05-20 23:55:00,
2013-05-20 20:00:00,79.3,72.2,30.00,South,171,0.0,0.0,74,0.00,,,0.03,dv,2013-05-21 00:00:00,
2013-05-20 20:05:00,79.3,72.5,30.00,South,171,0.0,0.0,75,0.00,,,0.03,dv,2013-05-21 00:05:00,
2013-05-20 20:10:00,79.1,72.3,30.00,South,171,0.0,0.0,75,0.00,,,0.03,dv,2013-05-21 00:10:00,
2013-05-20 20:15:00,78.8,72.0,30.00,South,171,0.0,0.0,75,0.00,,,0.03,dv,2013-05-21 00:15:00,
2013-05-20 20:20:00,78.6,72.1,29.99,South,171,0.0,0.0,76,0.00,,,0.03,dv,2013-05-21 00:20:00,
2013-05-20 20:25:00,78.2,71.7,29.99,South,171,0.0,0.0,76,0.00,,,0.03,dv,2013-05-21 00:25:00,
2013-05-20 20:30:00,78.0,71.2,29.99,South,171,0.0,0.0,75,0.00,,,0.03,dv,2013-05-21 00:30:00,
2013-05-20 20:35:00,77.7,70.9,29.99,South,171,0.0,0.0,75,0.00,,,0.03,dv,2013-05-21 00:35:00,
2013-05-20 20:40:00,77.4,70.6,29.98,South,171,0.0,0.0,75,0.00,,,0.03,dv,2013-05-21 00:40:00,
2013-05-20 20:45:00,77.1,70.7,29.99,South,171,0.0,0.0,76,0.00,,,0.03,dv,2013-05-21 00:45:00,
2013-05-20 20:50:00,76.9,70.5,29.99,South,171,0.0,0.0,76,0.00,,,0.03,dv,2013-05-21 00:50:00,
2013-05-20 20:55:00,76.6,70.2,29.99,South,171,0.0,0.0,76,0.00,,,0.03,dv,2013-05-21 00:55:00,
2013-05-20 21:00:00,76.4,70.3,29.99,South,171,0.0,0.0,77,0.00,,,0.03,dv,2013-05-21 01:00:00,
2013-05-20 21:05:00,76.1,70.0,29.99,South,171,0.0,0.0,77,0.00,,,0.03,dv,2013-05-21 01:05:00,
2013-05-20 21:10:00,75.9,69.8,29.99,South,171,0.0,0.0,77,0.00,,,0.03,dv,2013-05-21 01:10:00,
2013-05-20 21:15:00,75.5,69.4,29.99,South,171,0.0,0.0,77,0.00,,,0.03,dv,2013-05-21 01:15:00,
2013-05-20 21:20:00,75.4,69.6,29.99,South,171,0.0,0.0,78,0.00,,,0.03,dv,2013-05-21 01:20:00,
2013-05-20 21:25:00,75.1,69.6,29.99,South,171,0.0,0.0,79,0.00,,,0.03,dv,2013-05-21 01:25:00,
2013-05-20 21:30:00,74.9,69.4,29.99,South,171,0.0,0.0,79,0.00,,,0.03,dv,2013-05-21 01:30:00,
2013-05-20 21:35:00,74.6,69.4,29.99,South,171,0.0,0.0,80,0.00,,,0.03,dv,2013-05-21 01:35:00,
2013-05-20 21:40:00,74.4,69.2,30.00,South,171,0.0,0.0,80,0.00,,,0.03,dv,2013-05-21 01:40:00,
2013-05-20 21:45:00,74.1,68.9,30.00,South,171,0.0,0.0,80,0.00,,,0.03,dv,2013-05-21 01:45:00,
2013-05-20 21:55:00,73.7,69.1,30.00,South,171,0.0,0.0,82,0.00,,,0.03,dv,2013-05-21 01:55:00,
2013-05-20 22:00:00,73.5,68.9,30.01,South,171,0.0,0.0,82,0.00,,,0.03,dv,2013-05-21 02:00:00,
2013-05-20 22:05:00,73.3,69.0,30.01,South,171,0.0,0.0,83,0.00,,,0.03,dv,2013-05-21 02:05:00,
2013-05-20 22:10:00,73.1,68.8,30.01,South,171,0.0,0.0,83,0.00,,,0.03,dv,2013-05-21 02:10:00,
2013-05-20 22:15:00,72.9,68.6,30.02,South,171,0.0,0.0,83,0.00,,,0.03,dv,2013-05-21 02:15:00,
2013-05-20 22:20:00,72.8,68.8,30.02,South,171,0.0,0.0,84,0.00,,,0.03,dv,2013-05-21 02:20:00,
2013-05-20 22:25:00,72.6,68.9,30.02,South,171,0.0,0.0,85,0.00,,,0.03,dv,2013-05-21 02:25:00,
2013-05-20 22:30:00,72.5,68.8,30.02,South,171,0.0,0.0,85,0.00,,,0.03,dv,2013-05-21 02:30:00,
2013-05-20 22:35:00,72.4,68.7,30.02,South,171,0.0,0.0,85,0.00,,,0.03,dv,2013-05-21 02:35:00,
2013-05-20 22:40:00,72.3,68.8,30.01,South,171,0.0,0.0,86,0.00,,,0.03,dv,2013-05-21 02:40:00,
2013-05-20 22:45:00,72.3,68.8,30.02,South,171,0.0,0.0,86,0.00,,,0.03,dv,2013-05-21 02:45:00,
2013-05-20 22:50:00,72.2,68.7,30.02,South,171,0.0,0.0,86,0.00,,,0.03,dv,2013-05-21 02:50:00,
2013-05-20 22:55:00,72.1,68.6,30.02,South,171,0.0,0.0,86,0.00,,,0.03,dv,2013-05-21 02:55:00,
2013-05-20 23:00:00,72.0,68.5,30.02,South,171,0.0,0.0,86,0.00,,,0.03,dv,2013-05-21 03:00:00,
2013-05-20 23:05:00,72.0,68.8,30.02,South,171,0.0,0.0,87,0.00,,,0.03,dv,2013-05-21 03:05:00,
2013-05-20 23:10:00,72.0,68.8,30.02,South,171,0.0,0.0,87,0.00,,,0.03,dv,2013-05-21 03:10:00,
2013-05-20 23:15:00,71.9,69.0,30.02,South,171,0.0,0.0,88,0.00,,,0.03,dv,2013-05-21 03:15:00,
2013-05-20 23:20:00,71.8,68.9,30.02,South,171,0.0,0.0,88,0.00,,,0.03,dv,2013-05-21 03:20:00,
2013-05-20 23:25:00,71.8,68.6,30.02,South,171,0.0,0.0,87,0.00,,,0.03,dv,2013-05-21 03:25:00,
2013-05-20 23:30:00,71.7,68.8,30.02,South,172,0.0,0.0,88,0.00,,,0.03,dv,2013-05-21 03:30:00,
2013-05-20 23:35:00,71.6,68.7,30.02,South,171,0.0,0.0,88,0.00,,,0.03,dv,2013-05-21 03:35:00,
2013-05-20 23:40:00,71.6,68.7,30.02,South,171,0.0,0.0,88,0.00,,,0.03,dv,2013-05-21 03:40:00,
2013-05-20 23:45:00,71.4,68.2,30.01,South,171,0.0,0.0,87,0.00,,,0.03,dv,2013-05-21 03:45:00,
2013-05-20 23:50:00,71.3,68.4,30.01,South,171,0.0,0.0,88,0.00,,,0.03,dv,2013-05-21 03:50:00,
2013-05-20 23:55:00,71.3,68.4,30.01,South,171,0.0,0.0,88,0.00,,,0.03,dv,2013-05-21 03:55:00,